EHKD/DHR METAR and TAF weather

Enter ICAO airport designator
Station Type Date Time Source
EHKD METAR 2020/12/05 06:25 UTC NOAA

EHKD 050625Z AUTO 14003KT 9999 OVC220 01/00 Q0993 BLU NOSIG


Station Type Date Time Source
EHKD Decoded METAR 2020/12/05 06:25 UTC NOAA

De Kooy, Netherlands (EHKD) 52-55N 004-47E 14M
Dec 05, 2020 - 01:25 AM EST / 2020.12.05 0625 UTC
Wind: from the SE (140 degrees) at 3 MPH (3 KT):0
Visibility: greater than 7 mile(s):0
Sky conditions: overcast
Temperature: 33 F (1 C)
Dew Point: 32 F (0 C)
Relative Humidity: 93%
Pressure (altimeter): 29.32 in. Hg (0993 hPa)
ob: EHKD 050625Z AUTO 14003KT 9999 OVC220 01/00 Q0993 BLU NOSIG
cycle: 6

Station Type Date Time Source
EHKD TAF 2020/12/05 06:48 UTC NOAA

TAF TAF EHKD 050525Z 0506/0518 10004KT CAVOK
BECMG 0506/0509 13004KT PROB30
TEMPO 0504/0508 4000 BR
BECMG 0509/0511 18007G17KT PROB40
TEMPO 0511/0514 BKN016

Example: see airport list